sensor_id;sensor_type;location;lat;lon;timestamp;P1;durP1;ratioP1;P2;durP2;ratioP2
83659;SDS011;73632;50.808;3.422;2024-03-29T00:02:02;7.72;;;1.50;;
83659;SDS011;73632;50.808;3.422;2024-03-29T00:04:27;7.22;;;1.30;;
83659;SDS011;73632;50.808;3.422;2024-03-29T00:06:53;10.70;;;1.35;;
83659;SDS011;73632;50.808;3.422;2024-03-29T00:09:19;3.13;;;0.90;;
83659;SDS011;73632;50.808;3.422;2024-03-29T00:11:45;5.90;;;0.98;;
83659;SDS011;73632;50.808;3.422;2024-03-29T00:14:10;10.60;;;1.50;;
83659;SDS011;73632;50.808;3.422;2024-03-29T00:16:35;5.55;;;1.20;;
83659;SDS011;73632;50.808;3.422;2024-03-29T00:19:01;8.52;;;1.50;;
83659;SDS011;73632;50.808;3.422;2024-03-29T00:21:26;6.88;;;1.35;;
83659;SDS011;73632;50.808;3.422;2024-03-29T00:23:52;6.63;;;1.50;;
83659;SDS011;73632;50.808;3.422;2024-03-29T00:26:17;9.07;;;1.33;;
83659;SDS011;73632;50.808;3.422;2024-03-29T00:28:42;5.88;;;1.35;;
83659;SDS011;73632;50.808;3.422;2024-03-29T00:31:08;10.23;;;1.42;;
83659;SDS011;73632;50.808;3.422;2024-03-29T00:33:34;7.95;;;1.55;;
83659;SDS011;73632;50.808;3.422;2024-03-29T00:36:00;3.50;;;1.30;;
83659;SDS011;73632;50.808;3.422;2024-03-29T00:38:25;4.22;;;1.13;;
83659;SDS011;73632;50.808;3.422;2024-03-29T00:40:51;15.23;;;1.58;;
83659;SDS011;73632;50.808;3.422;2024-03-29T00:43:16;6.78;;;1.02;;
83659;SDS011;73632;50.808;3.422;2024-03-29T00:45:42;5.60;;;1.20;;
83659;SDS011;73632;50.808;3.422;2024-03-29T00:48:07;9.45;;;1.45;;
83659;SDS011;73632;50.808;3.422;2024-03-29T00:50:33;6.25;;;1.52;;
83659;SDS011;73632;50.808;3.422;2024-03-29T00:52:59;6.43;;;1.15;;
83659;SDS011;73632;50.808;3.422;2024-03-29T00:55:25;4.00;;;1.02;;
83659;SDS011;73632;50.808;3.422;2024-03-29T00:57:50;4.65;;;0.88;;
83659;SDS011;73632;50.808;3.422;2024-03-29T01:00:16;10.07;;;1.65;;
83659;SDS011;73632;50.808;3.422;2024-03-29T01:02:41;2.63;;;0.77;;
83659;SDS011;73632;50.808;3.422;2024-03-29T01:05:07;5.05;;;1.08;;
83659;SDS011;73632;50.808;3.422;2024-03-29T01:07:32;8.00;;;0.95;;
83659;SDS011;73632;50.808;3.422;2024-03-29T01:09:58;3.25;;;1.00;;
83659;SDS011;73632;50.808;3.422;2024-03-29T01:12:24;9.15;;;1.27;;
83659;SDS011;73632;50.808;3.422;2024-03-29T01:14:49;5.55;;;0.93;;
83659;SDS011;73632;50.808;3.422;2024-03-29T01:17:14;8.90;;;1.45;;
83659;SDS011;73632;50.808;3.422;2024-03-29T01:19:40;4.63;;;1.08;;
83659;SDS011;73632;50.808;3.422;2024-03-29T01:22:05;6.43;;;1.63;;
83659;SDS011;73632;50.808;3.422;2024-03-29T01:24:30;5.03;;;1.00;;
83659;SDS011;73632;50.808;3.422;2024-03-29T01:26:56;5.35;;;1.20;;
83659;SDS011;73632;50.808;3.422;2024-03-29T01:29:21;5.43;;;1.52;;
83659;SDS011;73632;50.808;3.422;2024-03-29T01:31:47;3.22;;;0.95;;
83659;SDS011;73632;50.808;3.422;2024-03-29T01:34:12;3.92;;;1.17;;
83659;SDS011;73632;50.808;3.422;2024-03-29T01:36:37;5.20;;;1.15;;
83659;SDS011;73632;50.808;3.422;2024-03-29T01:39:03;3.88;;;0.90;;
83659;SDS011;73632;50.808;3.422;2024-03-29T01:41:28;3.22;;;0.93;;
83659;SDS011;73632;50.808;3.422;2024-03-29T01:43:54;4.75;;;1.10;;
83659;SDS011;73632;50.808;3.422;2024-03-29T01:46:20;2.60;;;0.93;;
83659;SDS011;73632;50.808;3.422;2024-03-29T01:48:48;2.95;;;0.90;;
83659;SDS011;73632;50.808;3.422;2024-03-29T01:51:15;2.35;;;0.77;;
83659;SDS011;73632;50.808;3.422;2024-03-29T01:53:41;5.90;;;1.05;;
83659;SDS011;73632;50.808;3.422;2024-03-29T01:56:08;3.05;;;0.60;;
83659;SDS011;73632;50.808;3.422;2024-03-29T01:58:34;2.20;;;0.60;;
83659;SDS011;73632;50.808;3.422;2024-03-29T02:01:00;2.40;;;0.55;;
83659;SDS011;73632;50.808;3.422;2024-03-29T02:03:25;3.50;;;0.80;;
83659;SDS011;73632;50.808;3.422;2024-03-29T02:05:51;3.22;;;0.50;;
83659;SDS011;73632;50.808;3.422;2024-03-29T02:08:18;1.65;;;0.65;;
83659;SDS011;73632;50.808;3.422;2024-03-29T02:10:43;4.70;;;0.77;;
83659;SDS011;73632;50.808;3.422;2024-03-29T02:13:11;3.65;;;0.65;;
83659;SDS011;73632;50.808;3.422;2024-03-29T02:15:38;4.25;;;0.80;;
83659;SDS011;73632;50.808;3.422;2024-03-29T02:18:04;1.80;;;0.65;;
83659;SDS011;73632;50.808;3.422;2024-03-29T02:20:30;0.93;;;0.50;;
83659;SDS011;73632;50.808;3.422;2024-03-29T02:23:02;1.70;;;0.73;;
83659;SDS011;73632;50.808;3.422;2024-03-29T02:25:36;1.30;;;0.47;;
83659;SDS011;73632;50.808;3.422;2024-03-29T02:28:02;1.20;;;0.47;;
83659;SDS011;73632;50.808;3.422;2024-03-29T02:30:28;5.10;;;1.08;;
83659;SDS011;73632;50.808;3.422;2024-03-29T02:32:57;8.80;;;0.90;;
83659;SDS011;73632;50.808;3.422;2024-03-29T02:35:26;5.25;;;0.90;;
83659;SDS011;73632;50.808;3.422;2024-03-29T02:37:52;2.83;;;0.80;;
83659;SDS011;73632;50.808;3.422;2024-03-29T02:40:18;3.47;;;0.80;;
83659;SDS011;73632;50.808;3.422;2024-03-29T02:42:44;2.75;;;0.95;;
83659;SDS011;73632;50.808;3.422;2024-03-29T02:45:10;3.30;;;0.70;;
83659;SDS011;73632;50.808;3.422;2024-03-29T02:47:35;3.40;;;0.70;;
83659;SDS011;73632;50.808;3.422;2024-03-29T02:50:01;2.58;;;1.00;;
83659;SDS011;73632;50.808;3.422;2024-03-29T02:52:26;4.45;;;0.77;;
83659;SDS011;73632;50.808;3.422;2024-03-29T02:54:52;2.88;;;0.90;;
83659;SDS011;73632;50.808;3.422;2024-03-29T02:57:17;2.08;;;0.70;;
83659;SDS011;73632;50.808;3.422;2024-03-29T02:59:42;4.15;;;0.80;;
83659;SDS011;73632;50.808;3.422;2024-03-29T03:02:08;7.35;;;0.98;;
83659;SDS011;73632;50.808;3.422;2024-03-29T03:04:34;2.33;;;0.80;;
83659;SDS011;73632;50.808;3.422;2024-03-29T03:06:59;4.22;;;1.20;;
83659;SDS011;73632;50.808;3.422;2024-03-29T03:09:43;4.53;;;0.90;;
83659;SDS011;73632;50.808;3.422;2024-03-29T03:12:28;3.70;;;0.98;;
83659;SDS011;73632;50.808;3.422;2024-03-29T03:14:54;2.95;;;0.82;;
83659;SDS011;73632;50.808;3.422;2024-03-29T03:17:20;11.60;;;1.25;;
83659;SDS011;73632;50.808;3.422;2024-03-29T03:19:46;4.90;;;0.63;;
83659;SDS011;73632;50.808;3.422;2024-03-29T03:22:11;4.03;;;1.00;;
83659;SDS011;73632;50.808;3.422;2024-03-29T03:24:37;5.90;;;0.85;;
83659;SDS011;73632;50.808;3.422;2024-03-29T03:27:02;6.03;;;0.90;;
83659;SDS011;73632;50.808;3.422;2024-03-29T03:29:28;3.80;;;0.80;;
83659;SDS011;73632;50.808;3.422;2024-03-29T03:31:54;2.08;;;0.90;;
83659;SDS011;73632;50.808;3.422;2024-03-29T03:34:19;5.15;;;1.15;;
83659;SDS011;73632;50.808;3.422;2024-03-29T03:36:45;3.90;;;1.15;;
83659;SDS011;73632;50.808;3.422;2024-03-29T03:39:10;3.92;;;1.10;;
83659;SDS011;73632;50.808;3.422;2024-03-29T03:41:35;5.88;;;1.35;;
83659;SDS011;73632;50.808;3.422;2024-03-29T03:44:01;5.25;;;1.60;;
83659;SDS011;73632;50.808;3.422;2024-03-29T03:46:26;11.13;;;1.98;;
83659;SDS011;73632;50.808;3.422;2024-03-29T03:48:52;5.60;;;1.10;;
83659;SDS011;73632;50.808;3.422;2024-03-29T03:51:17;9.10;;;1.48;;
83659;SDS011;73632;50.808;3.422;2024-03-29T03:53:42;5.50;;;1.48;;
83659;SDS011;73632;50.808;3.422;2024-03-29T03:56:08;13.88;;;2.22;;
83659;SDS011;73632;50.808;3.422;2024-03-29T03:58:33;7.68;;;2.50;;
83659;SDS011;73632;50.808;3.422;2024-03-29T04:01:03;4.75;;;1.67;;
83659;SDS011;73632;50.808;3.422;2024-03-29T04:03:29;6.47;;;1.83;;
83659;SDS011;73632;50.808;3.422;2024-03-29T04:05:55;11.45;;;2.38;;
83659;SDS011;73632;50.808;3.422;2024-03-29T04:08:20;6.80;;;1.67;;
83659;SDS011;73632;50.808;3.422;2024-03-29T04:10:46;6.75;;;1.67;;
83659;SDS011;73632;50.808;3.422;2024-03-29T04:13:11;3.28;;;1.27;;
83659;SDS011;73632;50.808;3.422;2024-03-29T04:15:36;6.80;;;2.05;;
83659;SDS011;73632;50.808;3.422;2024-03-29T04:18:02;3.60;;;1.23;;
83659;SDS011;73632;50.808;3.422;2024-03-29T04:20:27;5.35;;;1.65;;
83659;SDS011;73632;50.808;3.422;2024-03-29T04:22:53;5.82;;;1.80;;
83659;SDS011;73632;50.808;3.422;2024-03-29T04:25:18;7.55;;;1.85;;
83659;SDS011;73632;50.808;3.422;2024-03-29T04:27:44;6.00;;;1.75;;
83659;SDS011;73632;50.808;3.422;2024-03-29T04:30:09;4.18;;;1.48;;
83659;SDS011;73632;50.808;3.422;2024-03-29T04:32:35;6.20;;;1.50;;
83659;SDS011;73632;50.808;3.422;2024-03-29T04:35:00;8.07;;;2.08;;
83659;SDS011;73632;50.808;3.422;2024-03-29T04:37:26;5.45;;;1.60;;
83659;SDS011;73632;50.808;3.422;2024-03-29T04:39:51;6.00;;;1.58;;
83659;SDS011;73632;50.808;3.422;2024-03-29T04:42:17;6.07;;;1.40;;
83659;SDS011;73632;50.808;3.422;2024-03-29T04:44:42;9.43;;;1.80;;
83659;SDS011;73632;50.808;3.422;2024-03-29T04:47:07;5.57;;;1.60;;
83659;SDS011;73632;50.808;3.422;2024-03-29T04:49:33;4.68;;;1.98;;
83659;SDS011;73632;50.808;3.422;2024-03-29T04:52:00;6.32;;;1.70;;
83659;SDS011;73632;50.808;3.422;2024-03-29T04:54:26;5.45;;;1.95;;
83659;SDS011;73632;50.808;3.422;2024-03-29T04:56:52;8.68;;;1.83;;
83659;SDS011;73632;50.808;3.422;2024-03-29T04:59:18;5.28;;;1.40;;
83659;SDS011;73632;50.808;3.422;2024-03-29T05:01:45;8.32;;;2.10;;
83659;SDS011;73632;50.808;3.422;2024-03-29T05:04:15;5.88;;;1.85;;
83659;SDS011;73632;50.808;3.422;2024-03-29T05:06:43;8.18;;;2.17;;
83659;SDS011;73632;50.808;3.422;2024-03-29T05:09:09;4.70;;;1.40;;
83659;SDS011;73632;50.808;3.422;2024-03-29T05:11:36;7.45;;;1.48;;
83659;SDS011;73632;50.808;3.422;2024-03-29T05:14:02;5.68;;;1.55;;
83659;SDS011;73632;50.808;3.422;2024-03-29T05:16:29;4.28;;;1.52;;
83659;SDS011;73632;50.808;3.422;2024-03-29T05:18:55;5.28;;;1.83;;
83659;SDS011;73632;50.808;3.422;2024-03-29T05:21:20;8.43;;;1.88;;
83659;SDS011;73632;50.808;3.422;2024-03-29T05:23:45;10.27;;;2.13;;
83659;SDS011;73632;50.808;3.422;2024-03-29T05:26:11;11.75;;;3.28;;
83659;SDS011;73632;50.808;3.422;2024-03-29T05:28:36;10.90;;;2.28;;
83659;SDS011;73632;50.808;3.422;2024-03-29T05:31:10;10.15;;;2.28;;
83659;SDS011;73632;50.808;3.422;2024-03-29T05:33:38;8.88;;;2.10;;
83659;SDS011;73632;50.808;3.422;2024-03-29T05:36:04;7.22;;;2.17;;
83659;SDS011;73632;50.808;3.422;2024-03-29T05:38:31;13.88;;;2.00;;
83659;SDS011;73632;50.808;3.422;2024-03-29T05:40:57;16.58;;;2.67;;
83659;SDS011;73632;50.808;3.422;2024-03-29T05:43:23;7.80;;;2.75;;
83659;SDS011;73632;50.808;3.422;2024-03-29T05:45:51;13.15;;;3.28;;
83659;SDS011;73632;50.808;3.422;2024-03-29T05:48:17;14.50;;;3.78;;
83659;SDS011;73632;50.808;3.422;2024-03-29T05:50:44;16.13;;;3.53;;
83659;SDS011;73632;50.808;3.422;2024-03-29T05:53:09;12.75;;;3.42;;
83659;SDS011;73632;50.808;3.422;2024-03-29T05:55:35;13.75;;;2.40;;
83659;SDS011;73632;50.808;3.422;2024-03-29T05:58:00;11.65;;;3.50;;
83659;SDS011;73632;50.808;3.422;2024-03-29T06:00:25;7.53;;;1.50;;
83659;SDS011;73632;50.808;3.422;2024-03-29T06:02:52;5.75;;;1.50;;
83659;SDS011;73632;50.808;3.422;2024-03-29T06:05:18;4.88;;;1.33;;
83659;SDS011;73632;50.808;3.422;2024-03-29T06:07:43;7.32;;;1.70;;
83659;SDS011;73632;50.808;3.422;2024-03-29T06:10:09;10.48;;;2.20;;
83659;SDS011;73632;50.808;3.422;2024-03-29T06:12:35;4.55;;;1.83;;
83659;SDS011;73632;50.808;3.422;2024-03-29T06:15:03;9.80;;;2.50;;
83659;SDS011;73632;50.808;3.422;2024-03-29T06:17:48;8.23;;;2.58;;
83659;SDS011;73632;50.808;3.422;2024-03-29T06:20:14;7.47;;;2.90;;
83659;SDS011;73632;50.808;3.422;2024-03-29T06:22:39;10.18;;;3.03;;
83659;SDS011;73632;50.808;3.422;2024-03-29T06:25:05;10.50;;;3.10;;
83659;SDS011;73632;50.808;3.422;2024-03-29T06:27:34;10.50;;;2.97;;
83659;SDS011;73632;50.808;3.422;2024-03-29T06:30:00;9.93;;;2.75;;
83659;SDS011;73632;50.808;3.422;2024-03-29T06:32:27;13.20;;;2.88;;
83659;SDS011;73632;50.808;3.422;2024-03-29T06:34:53;6.20;;;2.17;;
83659;SDS011;73632;50.808;3.422;2024-03-29T06:37:18;15.18;;;2.25;;
83659;SDS011;73632;50.808;3.422;2024-03-29T06:39:46;8.27;;;2.30;;
83659;SDS011;73632;50.808;3.422;2024-03-29T06:42:13;10.93;;;3.38;;
83659;SDS011;73632;50.808;3.422;2024-03-29T06:44:39;11.07;;;3.20;;
83659;SDS011;73632;50.808;3.422;2024-03-29T06:47:04;12.77;;;3.28;;
83659;SDS011;73632;50.808;3.422;2024-03-29T06:49:30;8.02;;;2.38;;
83659;SDS011;73632;50.808;3.422;2024-03-29T06:51:57;10.52;;;3.15;;
83659;SDS011;73632;50.808;3.422;2024-03-29T06:54:24;7.97;;;2.30;;
83659;SDS011;73632;50.808;3.422;2024-03-29T06:56:52;9.93;;;2.25;;
83659;SDS011;73632;50.808;3.422;2024-03-29T06:59:18;10.75;;;2.75;;
83659;SDS011;73632;50.808;3.422;2024-03-29T07:01:44;9.73;;;2.50;;
83659;SDS011;73632;50.808;3.422;2024-03-29T07:04:09;7.63;;;2.33;;
83659;SDS011;73632;50.808;3.422;2024-03-29T07:06:35;9.15;;;2.58;;
83659;SDS011;73632;50.808;3.422;2024-03-29T07:09:02;6.10;;;1.90;;
83659;SDS011;73632;50.808;3.422;2024-03-29T07:11:28;12.20;;;1.60;;
83659;SDS011;73632;50.808;3.422;2024-03-29T07:13:54;7.03;;;1.65;;
83659;SDS011;73632;50.808;3.422;2024-03-29T07:16:19;8.10;;;2.05;;
83659;SDS011;73632;50.808;3.422;2024-03-29T07:18:45;10.02;;;2.00;;
83659;SDS011;73632;50.808;3.422;2024-03-29T07:21:10;7.88;;;1.60;;
83659;SDS011;73632;50.808;3.422;2024-03-29T07:23:35;5.43;;;1.80;;
83659;SDS011;73632;50.808;3.422;2024-03-29T07:26:02;5.38;;;1.67;;
83659;SDS011;73632;50.808;3.422;2024-03-29T07:28:29;9.27;;;1.60;;
83659;SDS011;73632;50.808;3.422;2024-03-29T07:30:56;6.40;;;1.90;;
83659;SDS011;73632;50.808;3.422;2024-03-29T07:33:22;4.07;;;1.05;;
83659;SDS011;73632;50.808;3.422;2024-03-29T07:35:51;3.33;;;1.40;;
83659;SDS011;73632;50.808;3.422;2024-03-29T07:38:18;6.10;;;1.67;;
83659;SDS011;73632;50.808;3.422;2024-03-29T07:40:46;7.90;;;1.63;;
83659;SDS011;73632;50.808;3.422;2024-03-29T07:43:15;5.60;;;1.90;;
83659;SDS011;73632;50.808;3.422;2024-03-29T07:45:41;8.68;;;1.98;;
83659;SDS011;73632;50.808;3.422;2024-03-29T07:48:10;6.95;;;1.67;;
83659;SDS011;73632;50.808;3.422;2024-03-29T07:50:37;7.45;;;1.92;;
83659;SDS011;73632;50.808;3.422;2024-03-29T07:53:02;7.88;;;2.17;;
83659;SDS011;73632;50.808;3.422;2024-03-29T07:55:28;7.45;;;2.05;;
83659;SDS011;73632;50.808;3.422;2024-03-29T07:57:53;7.40;;;1.98;;
83659;SDS011;73632;50.808;3.422;2024-03-29T08:00:19;7.97;;;2.03;;
83659;SDS011;73632;50.808;3.422;2024-03-29T08:02:44;9.75;;;2.75;;
83659;SDS011;73632;50.808;3.422;2024-03-29T08:05:09;6.35;;;1.85;;
83659;SDS011;73632;50.808;3.422;2024-03-29T08:07:35;8.23;;;2.10;;
83659;SDS011;73632;50.808;3.422;2024-03-29T08:10:00;10.60;;;3.03;;
83659;SDS011;73632;50.808;3.422;2024-03-29T08:12:26;3.92;;;2.13;;
83659;SDS011;73632;50.808;3.422;2024-03-29T08:14:51;6.22;;;2.30;;
83659;SDS011;73632;50.808;3.422;2024-03-29T08:17:16;6.05;;;2.55;;
83659;SDS011;73632;50.808;3.422;2024-03-29T08:19:42;6.53;;;2.33;;
83659;SDS011;73632;50.808;3.422;2024-03-29T08:22:08;2.83;;;1.50;;
83659;SDS011;73632;50.808;3.422;2024-03-29T08:24:35;7.18;;;2.75;;
83659;SDS011;73632;50.808;3.422;2024-03-29T08:27:01;5.80;;;1.70;;
83659;SDS011;73632;50.808;3.422;2024-03-29T08:29:27;2.97;;;1.10;;
83659;SDS011;73632;50.808;3.422;2024-03-29T08:31:53;5.13;;;1.50;;
83659;SDS011;73632;50.808;3.422;2024-03-29T08:34:18;5.07;;;1.40;;
83659;SDS011;73632;50.808;3.422;2024-03-29T08:36:44;3.75;;;1.42;;
83659;SDS011;73632;50.808;3.422;2024-03-29T08:39:09;3.20;;;1.50;;
83659;SDS011;73632;50.808;3.422;2024-03-29T08:41:36;5.53;;;1.75;;
83659;SDS011;73632;50.808;3.422;2024-03-29T08:44:02;5.00;;;1.60;;
83659;SDS011;73632;50.808;3.422;2024-03-29T08:46:27;8.35;;;1.60;;
83659;SDS011;73632;50.808;3.422;2024-03-29T08:48:53;4.63;;;2.08;;
83659;SDS011;73632;50.808;3.422;2024-03-29T08:51:20;3.00;;;1.40;;
83659;SDS011;73632;50.808;3.422;2024-03-29T08:53:45;5.00;;;2.03;;
83659;SDS011;73632;50.808;3.422;2024-03-29T08:56:11;9.82;;;1.58;;
83659;SDS011;73632;50.808;3.422;2024-03-29T08:58:37;5.75;;;1.73;;
83659;SDS011;73632;50.808;3.422;2024-03-29T09:01:03;8.60;;;1.60;;
83659;SDS011;73632;50.808;3.422;2024-03-29T09:03:29;5.60;;;1.85;;
83659;SDS011;73632;50.808;3.422;2024-03-29T09:05:55;6.85;;;2.00;;
83659;SDS011;73632;50.808;3.422;2024-03-29T09:08:20;7.68;;;1.65;;
83659;SDS011;73632;50.808;3.422;2024-03-29T09:10:46;6.47;;;1.75;;
83659;SDS011;73632;50.808;3.422;2024-03-29T09:13:11;6.72;;;1.70;;
83659;SDS011;73632;50.808;3.422;2024-03-29T09:15:37;2.67;;;1.30;;
83659;SDS011;73632;50.808;3.422;2024-03-29T09:18:03;4.15;;;1.98;;
83659;SDS011;73632;50.808;3.422;2024-03-29T09:20:39;3.55;;;1.70;;
83659;SDS011;73632;50.808;3.422;2024-03-29T09:23:04;3.80;;;1.13;;
83659;SDS011;73632;50.808;3.422;2024-03-29T09:25:30;3.78;;;1.35;;
83659;SDS011;73632;50.808;3.422;2024-03-29T09:27:57;2.50;;;1.30;;
83659;SDS011;73632;50.808;3.422;2024-03-29T09:30:23;5.55;;;1.60;;
83659;SDS011;73632;50.808;3.422;2024-03-29T09:32:49;6.30;;;1.65;;
83659;SDS011;73632;50.808;3.422;2024-03-29T09:35:16;3.58;;;1.45;;
83659;SDS011;73632;50.808;3.422;2024-03-29T09:37:42;8.90;;;1.90;;
83659;SDS011;73632;50.808;3.422;2024-03-29T09:40:10;6.28;;;1.48;;
83659;SDS011;73632;50.808;3.422;2024-03-29T09:42:37;3.55;;;1.70;;
83659;SDS011;73632;50.808;3.422;2024-03-29T09:45:04;2.17;;;1.20;;
83659;SDS011;73632;50.808;3.422;2024-03-29T09:47:31;3.92;;;1.38;;
83659;SDS011;73632;50.808;3.422;2024-03-29T09:49:58;3.35;;;1.38;;
83659;SDS011;73632;50.808;3.422;2024-03-29T09:52:27;3.00;;;1.52;;
83659;SDS011;73632;50.808;3.422;2024-03-29T09:54:53;2.53;;;1.27;;
83659;SDS011;73632;50.808;3.422;2024-03-29T09:57:20;2.22;;;1.30;;
83659;SDS011;73632;50.808;3.422;2024-03-29T09:59:46;3.08;;;1.10;;
83659;SDS011;73632;50.808;3.422;2024-03-29T10:02:14;1.95;;;1.13;;
83659;SDS011;73632;50.808;3.422;2024-03-29T10:04:43;3.05;;;1.10;;
83659;SDS011;73632;50.808;3.422;2024-03-29T10:07:11;2.08;;;1.00;;
83659;SDS011;73632;50.808;3.422;2024-03-29T10:09:38;4.28;;;1.25;;
83659;SDS011;73632;50.808;3.422;2024-03-29T10:12:04;2.13;;;1.10;;
83659;SDS011;73632;50.808;3.422;2024-03-29T10:14:30;2.72;;;1.10;;
83659;SDS011;73632;50.808;3.422;2024-03-29T10:16:59;8.20;;;1.33;;
83659;SDS011;73632;50.808;3.422;2024-03-29T10:19:24;3.70;;;0.93;;
83659;SDS011;73632;50.808;3.422;2024-03-29T10:21:50;11.30;;;1.90;;
83659;SDS011;73632;50.808;3.422;2024-03-29T10:24:16;1.48;;;0.90;;
83659;SDS011;73632;50.808;3.422;2024-03-29T10:26:44;3.42;;;1.50;;
83659;SDS011;73632;50.808;3.422;2024-03-29T10:29:11;6.68;;;1.25;;
83659;SDS011;73632;50.808;3.422;2024-03-29T10:31:36;2.85;;;1.10;;
83659;SDS011;73632;50.808;3.422;2024-03-29T10:34:05;9.88;;;1.60;;
83659;SDS011;73632;50.808;3.422;2024-03-29T10:36:31;2.42;;;1.15;;
83659;SDS011;73632;50.808;3.422;2024-03-29T10:39:09;1.77;;;0.90;;
83659;SDS011;73632;50.808;3.422;2024-03-29T10:41:37;7.10;;;1.23;;
83659;SDS011;73632;50.808;3.422;2024-03-29T10:44:05;3.15;;;1.20;;
83659;SDS011;73632;50.808;3.422;2024-03-29T10:46:39;1.65;;;0.98;;
83659;SDS011;73632;50.808;3.422;2024-03-29T10:49:10;1.08;;;0.70;;
83659;SDS011;73632;50.808;3.422;2024-03-29T10:51:39;5.35;;;0.90;;
83659;SDS011;73632;50.808;3.422;2024-03-29T10:54:09;3.15;;;0.80;;
83659;SDS011;73632;50.808;3.422;2024-03-29T10:56:37;2.33;;;0.90;;
83659;SDS011;73632;50.808;3.422;2024-03-29T10:59:08;4.18;;;0.80;;
83659;SDS011;73632;50.808;3.422;2024-03-29T11:01:37;3.10;;;0.88;;
83659;SDS011;73632;50.808;3.422;2024-03-29T11:04:09;1.52;;;0.77;;
83659;SDS011;73632;50.808;3.422;2024-03-29T11:06:39;3.55;;;0.77;;
83659;SDS011;73632;50.808;3.422;2024-03-29T11:09:06;3.78;;;1.02;;
83659;SDS011;73632;50.808;3.422;2024-03-29T11:11:37;3.53;;;1.40;;
83659;SDS011;73632;50.808;3.422;2024-03-29T11:14:07;2.05;;;0.95;;
83659;SDS011;73632;50.808;3.422;2024-03-29T11:16:37;2.78;;;0.80;;
83659;SDS011;73632;50.808;3.422;2024-03-29T11:19:06;1.75;;;0.80;;
83659;SDS011;73632;50.808;3.422;2024-03-29T11:21:32;1.50;;;0.70;;
83659;SDS011;73632;50.808;3.422;2024-03-29T11:23:58;2.53;;;0.73;;
83659;SDS011;73632;50.808;3.422;2024-03-29T11:26:28;3.72;;;0.90;;
83659;SDS011;73632;50.808;3.422;2024-03-29T11:28:54;2.30;;;0.80;;
83659;SDS011;73632;50.808;3.422;2024-03-29T11:31:22;2.55;;;0.90;;
83659;SDS011;73632;50.808;3.422;2024-03-29T11:33:48;2.35;;;0.70;;
83659;SDS011;73632;50.808;3.422;2024-03-29T11:36:23;1.63;;;0.80;;
83659;SDS011;73632;50.808;3.422;2024-03-29T11:38:53;1.88;;;0.93;;
83659;SDS011;73632;50.808;3.422;2024-03-29T11:41:26;1.35;;;0.68;;
83659;SDS011;73632;50.808;3.422;2024-03-29T11:43:55;3.10;;;1.10;;
83659;SDS011;73632;50.808;3.422;2024-03-29T11:46:22;4.57;;;0.82;;
83659;SDS011;73632;50.808;3.422;2024-03-29T11:48:48;5.05;;;0.70;;
83659;SDS011;73632;50.808;3.422;2024-03-29T11:51:18;1.80;;;0.73;;
83659;SDS011;73632;50.808;3.422;2024-03-29T11:53:46;4.63;;;0.98;;
83659;SDS011;73632;50.808;3.422;2024-03-29T11:56:12;1.77;;;0.73;;
83659;SDS011;73632;50.808;3.422;2024-03-29T11:58:38;5.30;;;1.23;;
83659;SDS011;73632;50.808;3.422;2024-03-29T12:01:04;5.18;;;0.98;;
83659;SDS011;73632;50.808;3.422;2024-03-29T12:03:31;1.52;;;0.70;;
83659;SDS011;73632;50.808;3.422;2024-03-29T12:05:58;1.38;;;0.50;;
83659;SDS011;73632;50.808;3.422;2024-03-29T12:08:30;2.03;;;0.80;;
83659;SDS011;73632;50.808;3.422;2024-03-29T12:11:00;1.90;;;0.70;;
83659;SDS011;73632;50.808;3.422;2024-03-29T12:13:26;1.83;;;0.90;;
83659;SDS011;73632;50.808;3.422;2024-03-29T12:15:52;1.08;;;0.60;;
83659;SDS011;73632;50.808;3.422;2024-03-29T12:18:21;1.25;;;0.40;;
83659;SDS011;73632;50.808;3.422;2024-03-29T12:20:49;1.30;;;0.50;;
83659;SDS011;73632;50.808;3.422;2024-03-29T12:23:20;2.08;;;0.70;;
83659;SDS011;73632;50.808;3.422;2024-03-29T12:25:46;1.45;;;0.70;;
83659;SDS011;73632;50.808;3.422;2024-03-29T12:28:13;4.07;;;1.17;;
83659;SDS011;73632;50.808;3.422;2024-03-29T12:30:43;2.05;;;0.60;;
83659;SDS011;73632;50.808;3.422;2024-03-29T12:35:46;2.88;;;0.73;;
83659;SDS011;73632;50.808;3.422;2024-03-29T12:38:17;2.78;;;1.00;;
83659;SDS011;73632;50.808;3.422;2024-03-29T12:40:49;1.42;;;0.63;;
83659;SDS011;73632;50.808;3.422;2024-03-29T12:43:19;1.02;;;0.70;;
83659;SDS011;73632;50.808;3.422;2024-03-29T12:45:46;4.50;;;0.80;;
83659;SDS011;73632;50.808;3.422;2024-03-29T12:48:12;1.48;;;0.70;;
83659;SDS011;73632;50.808;3.422;2024-03-29T12:50:41;2.35;;;0.80;;
83659;SDS011;73632;50.808;3.422;2024-03-29T12:53:09;0.93;;;0.70;;
83659;SDS011;73632;50.808;3.422;2024-03-29T12:55:36;2.30;;;0.73;;
83659;SDS011;73632;50.808;3.422;2024-03-29T12:58:04;2.53;;;0.90;;
83659;SDS011;73632;50.808;3.422;2024-03-29T13:00:33;1.67;;;0.50;;
83659;SDS011;73632;50.808;3.422;2024-03-29T13:02:59;0.93;;;0.60;;
83659;SDS011;73632;50.808;3.422;2024-03-29T13:05:24;1.13;;;0.80;;
83659;SDS011;73632;50.808;3.422;2024-03-29T13:07:50;4.25;;;0.80;;
83659;SDS011;73632;50.808;3.422;2024-03-29T13:10:16;4.35;;;0.80;;
83659;SDS011;73632;50.808;3.422;2024-03-29T13:12:46;2.42;;;0.75;;
83659;SDS011;73632;50.808;3.422;2024-03-29T13:15:15;0.93;;;0.50;;
83659;SDS011;73632;50.808;3.422;2024-03-29T13:17:41;1.98;;;0.73;;
83659;SDS011;73632;50.808;3.422;2024-03-29T13:20:07;1.50;;;0.60;;
83659;SDS011;73632;50.808;3.422;2024-03-29T13:22:33;3.35;;;0.70;;
83659;SDS011;73632;50.808;3.422;2024-03-29T13:24:59;1.48;;;0.80;;
83659;SDS011;73632;50.808;3.422;2024-03-29T13:27:24;2.28;;;0.75;;
83659;SDS011;73632;50.808;3.422;2024-03-29T13:29:50;2.20;;;0.77;;
83659;SDS011;73632;50.808;3.422;2024-03-29T13:32:15;1.27;;;0.70;;
83659;SDS011;73632;50.808;3.422;2024-03-29T13:34:40;1.92;;;0.75;;
83659;SDS011;73632;50.808;3.422;2024-03-29T13:37:06;1.92;;;0.73;;
83659;SDS011;73632;50.808;3.422;2024-03-29T13:39:31;2.42;;;0.80;;
83659;SDS011;73632;50.808;3.422;2024-03-29T13:41:57;3.45;;;1.02;;
83659;SDS011;73632;50.808;3.422;2024-03-29T13:44:22;1.48;;;0.88;;
83659;SDS011;73632;50.808;3.422;2024-03-29T13:46:48;1.67;;;0.65;;
83659;SDS011;73632;50.808;3.422;2024-03-29T13:49:13;3.85;;;0.80;;
83659;SDS011;73632;50.808;3.422;2024-03-29T13:51:39;5.88;;;0.93;;
83659;SDS011;73632;50.808;3.422;2024-03-29T13:54:04;3.00;;;0.73;;
83659;SDS011;73632;50.808;3.422;2024-03-29T13:56:30;2.20;;;0.52;;
83659;SDS011;73632;50.808;3.422;2024-03-29T13:58:55;2.38;;;0.65;;
83659;SDS011;73632;50.808;3.422;2024-03-29T14:01:21;1.83;;;0.75;;
83659;SDS011;73632;50.808;3.422;2024-03-29T14:03:46;3.45;;;1.00;;
83659;SDS011;73632;50.808;3.422;2024-03-29T14:06:12;3.67;;;0.85;;
83659;SDS011;73632;50.808;3.422;2024-03-29T14:08:37;1.55;;;0.68;;
83659;SDS011;73632;50.808;3.422;2024-03-29T14:11:03;1.23;;;0.57;;
83659;SDS011;73632;50.808;3.422;2024-03-29T14:13:28;3.42;;;1.00;;
83659;SDS011;73632;50.808;3.422;2024-03-29T14:15:54;2.65;;;0.80;;
83659;SDS011;73632;50.808;3.422;2024-03-29T14:18:20;1.60;;;0.68;;
83659;SDS011;73632;50.808;3.422;2024-03-29T14:20:46;7.93;;;1.10;;
83659;SDS011;73632;50.808;3.422;2024-03-29T14:23:11;2.63;;;1.05;;
83659;SDS011;73632;50.808;3.422;2024-03-29T14:25:39;3.85;;;1.00;;
83659;SDS011;73632;50.808;3.422;2024-03-29T14:28:05;6.25;;;1.17;;
83659;SDS011;73632;50.808;3.422;2024-03-29T14:30:31;4.13;;;0.82;;
83659;SDS011;73632;50.808;3.422;2024-03-29T14:32:56;1.88;;;0.85;;
83659;SDS011;73632;50.808;3.422;2024-03-29T14:35:22;2.63;;;0.95;;
83659;SDS011;73632;50.808;3.422;2024-03-29T14:37:48;1.98;;;0.85;;
83659;SDS011;73632;50.808;3.422;2024-03-29T14:40:13;2.47;;;0.85;;
83659;SDS011;73632;50.808;3.422;2024-03-29T14:42:42;3.10;;;0.65;;
83659;SDS011;73632;50.808;3.422;2024-03-29T14:45:08;2.70;;;0.80;;